Time;durP1;ratioP1;P1;durP2;ratioP2;P2;SDS_P1;SDS_P2;PMS_P1;PMS_P2;Temp;Humidity;BMP_temperature;BMP_pressure;BME280_temperature;BME280_humidity;BME280_pressure;Samples;Min_cycle;Max_cycle;Signal;HPM_P1;HPM_P2
2023/09/01 00:00:04;;;;;;;9.60;6.57;;;;;;;16.59;63.47;99454.69;5051928;28;20080;-85
2023/09/01 00:02:31;;;;;;;10.25;7.68;;;;;;;16.59;63.54;99457.34;5052005;28;20053;-85
2023/09/01 00:04:58;;;;;;;7.85;6.88;;;;;;;16.57;63.84;99446.84;5051971;28;20077;-85
2023/09/01 00:07:24;;;;;;;10.07;7.75;;;;;;;16.58;63.79;99452.97;5051466;28;20499;-85
2023/09/01 00:09:53;;;;;;;9.75;7.43;;;;;;;16.56;63.52;99455.75;5052032;28;20144;-85
2023/09/01 00:12:20;;;;;;;12.55;8.05;;;;;;;16.54;63.85;99455.91;5051748;28;20059;-85
2023/09/01 00:14:46;;;;;;;10.60;8.38;;;;;;;16.54;63.85;99453.25;5052052;28;20140;-85
2023/09/01 00:17:14;;;;;;;11.38;8.43;;;;;;;16.54;64.04;99457.72;5051837;28;20060;-85
2023/09/01 00:19:40;;;;;;;13.38;8.45;;;;;;;16.53;64.22;99454.22;5051560;28;20057;-85
2023/09/01 00:22:07;;;;;;;10.25;8.60;;;;;;;16.52;64.24;99460.50;5051600;28;20083;-85
2023/09/01 00:24:34;;;;;;;15.00;9.35;;;;;;;16.53;64.27;99461.34;5051923;28;20095;-85
2023/09/01 00:27:07;;;;;;;9.13;8.02;;;;;;;16.54;64.42;99463.88;5051447;28;20045;-85
2023/09/01 00:29:34;;;;;;;15.40;9.32;;;;;;;16.55;64.38;99464.72;5051422;28;20087;-86
2023/09/01 00:32:01;;;;;;;9.82;8.23;;;;;;;16.56;64.29;99460.25;5051243;28;20292;-85
2023/09/01 00:34:30;;;;;;;12.35;9.00;;;;;;;16.57;64.63;99451.28;5051395;28;20049;-85
2023/09/01 00:36:57;;;;;;;13.05;9.45;;;;;;;16.58;64.70;99447.66;5051468;28;20476;-85
2023/09/01 00:39:23;;;;;;;15.18;10.70;;;;;;;16.60;64.59;99451.03;5033594;28;20053;-85
2023/09/01 00:41:53;;;;;;;11.02;9.85;;;;;;;16.62;64.51;99457.03;5051118;28;20146;-85
2023/09/01 00:44:22;;;;;;;12.15;10.25;;;;;;;16.63;64.57;99461.41;5051242;28;20067;-85
2023/09/01 00:46:52;;;;;;;13.38;9.57;;;;;;;16.63;64.51;99464.88;5051015;28;20515;-85
2023/09/01 00:49:21;;;;;;;;;;;;;;;16.61;64.37;99456.22;5051668;28;20056;-85
2023/09/01 00:52:09;;;;;;;11.77;9.45;;;;;;;16.65;63.94;99462.09;5027295;28;19974;-86
2023/09/01 00:54:59;;;;;;;14.25;11.68;;;;;;;16.63;64.10;99461.41;5034616;28;20071;-85
2023/09/01 00:57:27;;;;;;;13.25;11.30;;;;;;;16.60;64.19;99461.66;5050721;28;20500;-85
2023/09/01 00:59:59;;;;;;;14.15;10.73;;;;;;;16.57;64.50;99453.94;5051006;28;20076;-85
2023/09/01 01:02:26;;;;;;;14.30;11.27;;;;;;;16.54;64.53;99450.59;5050931;28;20389;-85
2023/09/01 01:04:55;;;;;;;14.32;11.38;;;;;;;16.52;64.68;99451.72;5033487;28;20076;-86
2023/09/01 01:07:40;;;;;;;14.73;12.00;;;;;;;16.48;65.83;99459.09;5032865;28;20473;-86
2023/09/01 01:10:27;;;;;;;16.38;12.23;;;;;;;16.50;65.57;99461.63;5050792;28;20059;-85
2023/09/01 01:13:07;;;;;;;16.25;13.70;;;;;;;16.50;65.61;99457.16;5050935;28;20048;-86
2023/09/01 01:15:42;;;;;;;17.23;13.27;;;;;;;16.53;65.15;99448.91;5033914;28;20057;-85
2023/09/01 01:18:12;;;;;;;14.68;13.10;;;;;;;16.52;65.04;99449.88;5050269;28;20126;-85
2023/09/01 01:20:53;;;;;;;18.33;14.73;;;;;;;16.51;65.84;99439.38;5051155;28;20053;-85
2023/09/01 01:23:31;;;;;;;17.05;14.75;;;;;;;16.53;65.42;99443.59;5019454;28;20471;-85
2023/09/01 01:26:05;;;;;;;17.00;13.30;;;;;;;16.54;65.27;99444.44;5051493;28;20049;-85
2023/09/01 01:28:33;;;;;;;16.15;14.30;;;;;;;16.57;64.95;99445.97;5032831;28;20348;-85
2023/09/01 01:31:09;;;;;;;;;;;;;;;;;;;;;
2023/09/01 01:34:14;;;;;;;16.75;14.50;;;;;;;16.52;65.48;99454.38;5050768;28;20057;-85
2023/09/01 01:37:58;;;;;;;23.45;14.70;;;;;;;16.53;65.45;99448.06;5001473;28;20562;-85
2023/09/01 01:49:05;;;;;;;19.23;14.95;;;;;;;16.48;65.34;99448.47;4927062;28;20138;-86
2023/09/01 01:52:04;;;;;;;;;;;;;;;;;;;;;
2023/09/01 01:55:28;;;;;;;21.10;16.08;;;;;;;16.40;65.67;99450.94;5050402;28;20049;-86
2023/09/01 02:02:15;;;;;;;22.23;17.05;;;;;;;16.32;65.62;99450.75;5050257;28;20043;-85
2023/09/01 02:08:40;;;;;;;19.42;14.73;;;;;;;16.28;65.34;99453.69;4965407;28;20055;-85
2023/09/01 02:18:18;;;;;;;21.92;16.95;;;;;;;16.24;65.22;99452.28;5022932;22;20053;-76
2023/09/01 02:20:45;;;;;;;19.75;17.20;;;;;;;16.22;65.36;99458.69;5030315;28;20041;-75
2023/09/01 02:23:19;;;;;;;22.48;17.67;;;;;;;16.16;65.78;99457.41;5012832;28;20120;-79
2023/09/01 02:25:46;;;;;;;23.33;18.38;;;;;;;16.15;65.70;99453.06;5012700;28;20231;-77
2023/09/01 02:28:14;;;;;;;22.77;18.02;;;;;;;16.13;65.56;99461.16;5030265;28;20504;-76
2023/09/01 02:30:40;;;;;;;20.67;17.10;;;;;;;16.10;66.05;99448.16;5033418;28;20054;-77
2023/09/01 02:33:07;;;;;;;23.08;17.73;;;;;;;16.10;66.10;99455.25;5034156;28;20060;-77
2023/09/01 02:35:44;;;;;;;18.48;15.88;;;;;;;16.07;66.63;99455.53;5016459;28;20073;-76
2023/09/01 02:38:11;;;;;;;23.77;16.45;;;;;;;16.10;66.10;99457.91;5033795;28;20037;-77
2023/09/01 02:40:39;;;;;;;20.85;16.67;;;;;;;16.10;66.25;99455.25;5033554;28;20084;-76
2023/09/01 02:43:06;;;;;;;22.05;17.17;;;;;;;16.12;66.11;99455.97;5033703;28;20041;-75
2023/09/01 02:45:33;;;;;;;22.00;17.27;;;;;;;16.12;66.25;99453.34;5033868;28;20080;-76
2023/09/01 02:47:59;;;;;;;22.15;17.15;;;;;;;16.13;66.03;99457.66;5016099;28;20107;-78
2023/09/01 02:50:26;;;;;;;25.58;17.73;;;;;;;16.12;66.26;99448.84;5033531;28;20063;-76
2023/09/01 02:52:52;;;;;;;22.50;18.08;;;;;;;16.14;66.07;99451.38;5033672;28;20050;-77
2023/09/01 02:55:19;;;;;;;20.42;16.73;;;;;;;16.13;66.07;99450.56;5033582;28;20111;-76
2023/09/01 02:57:46;;;;;;;20.92;15.38;;;;;;;16.12;65.92;99446.19;5033348;28;20072;-78
2023/09/01 03:00:18;;;;;;;19.92;16.83;;;;;;;16.12;65.89;99453.34;5015492;28;20095;-76
2023/09/01 03:02:45;;;;;;;22.60;17.25;;;;;;;16.10;65.94;99449.94;5016013;28;20160;-76
2023/09/01 03:05:12;;;;;;;21.15;17.17;;;;;;;16.08;66.00;99454.56;5033234;28;20107;-78
2023/09/01 03:07:40;;;;;;;20.48;17.52;;;;;;;16.06;66.05;99454.69;5033191;28;20049;-76
2023/09/01 03:10:07;;;;;;;22.13;17.80;;;;;;;16.04;66.15;99453.13;5015332;28;20140;-77
2023/09/01 03:12:38;;;;;;;18.75;16.27;;;;;;;16.01;66.58;99449.75;5015487;28;20576;-79
2023/09/01 03:15:11;;;;;;;21.60;17.58;;;;;;;15.99;66.71;99441.09;5033556;28;20057;-76
2023/09/01 03:17:38;;;;;;;24.17;17.33;;;;;;;16.00;66.37;99434.81;5033357;28;20548;-76
2023/09/01 03:20:06;;;;;;;22.75;16.33;;;;;;;16.00;66.48;99445.44;5032973;28;20057;-78
2023/09/01 03:22:33;;;;;;;19.77;16.15;;;;;;;16.01;66.49;99441.78;5032997;28;20089;-78
2023/09/01 03:24:59;;;;;;;26.35;16.63;;;;;;;16.01;66.48;99439.13;5015239;28;20108;-77
2023/09/01 03:27:26;;;;;;;18.13;15.88;;;;;;;16.01;66.64;99447.09;5015405;28;20124;-76
2023/09/01 03:29:54;;;;;;;20.50;15.25;;;;;;;16.01;66.55;99439.13;5024962;28;20115;-75
2023/09/01 03:32:21;;;;;;;18.58;15.07;;;;;;;16.02;66.54;99442.66;5032768;28;20049;-77
2023/09/01 03:34:48;;;;;;;23.73;16.63;;;;;;;16.02;66.36;99448.81;5015228;28;20060;-76
2023/09/01 03:37:14;;;;;;;22.48;16.95;;;;;;;16.01;66.19;99447.09;5032715;28;20049;-78
2023/09/01 03:39:41;;;;;;;20.80;17.02;;;;;;;16.02;66.14;99461.22;5032679;28;20096;-77
2023/09/01 03:42:08;;;;;;;21.65;16.23;;;;;;;15.99;66.15;99459.69;5031850;28;20501;-76
2023/09/01 03:44:34;;;;;;;26.73;17.15;;;;;;;15.97;66.09;99466.09;5015157;28;20045;-76
2023/09/01 03:47:01;;;;;;;19.60;15.95;;;;;;;15.94;66.18;99461.00;5032561;28;20046;-79
2023/09/01 03:49:28;;;;;;;22.92;16.50;;;;;;;15.91;66.20;99459.44;5014929;28;20050;-76
2023/09/01 03:51:54;;;;;;;20.63;16.52;;;;;;;15.90;66.42;99455.13;5032238;28;20084;-77
2023/09/01 03:54:21;;;;;;;21.05;16.33;;;;;;;15.87;66.38;99453.56;5032563;28;20119;-77
2023/09/01 03:56:47;;;;;;;21.00;16.45;;;;;;;15.85;66.38;99457.34;5032300;28;20556;-77
2023/09/01 03:59:14;;;;;;;23.05;16.77;;;;;;;15.83;66.33;99456.59;5032390;28;20107;-77
2023/09/01 04:01:43;;;;;;;20.58;15.93;;;;;;;15.80;66.33;99457.69;5032193;28;20056;-75
2023/09/01 04:04:10;;;;;;;22.30;16.52;;;;;;;15.77;66.26;99453.50;5032342;28;20053;-75
2023/09/01 04:06:36;;;;;;;23.33;17.80;;;;;;;15.73;66.39;99454.72;5032000;28;20053;-77
2023/09/01 04:09:04;;;;;;;21.33;16.98;;;;;;;15.71;66.34;99463.78;5032264;28;20103;-75
2023/09/01 04:11:32;;;;;;;24.13;16.88;;;;;;;15.68;66.49;99462.22;5032147;28;20045;-75
2023/09/01 04:13:58;;;;;;;22.25;16.30;;;;;;;15.66;66.43;99460.69;5031998;28;20493;-78
2023/09/01 04:16:25;;;;;;;19.90;16.95;;;;;;;15.63;66.53;99459.94;5032007;28;20111;-77
2023/09/01 04:18:52;;;;;;;22.23;17.13;;;;;;;15.62;66.70;99460.06;5014218;28;20045;-76
2023/09/01 04:21:18;;;;;;;25.50;17.75;;;;;;;15.58;66.63;99458.66;5031764;28;20053;-76
2023/09/01 04:23:46;;;;;;;23.70;17.55;;;;;;;15.56;66.57;99455.28;5031622;28;20470;-76
2023/09/01 04:26:13;;;;;;;22.15;17.50;;;;;;;15.53;66.67;99456.38;5031279;28;20111;-76
2023/09/01 04:28:40;;;;;;;21.55;17.33;;;;;;;15.50;66.79;99453.97;5031236;28;20498;-76
2023/09/01 04:31:26;;;;;;;21.65;17.15;;;;;;;15.43;67.58;99442.19;5031358;28;20050;-76
2023/09/01 04:33:54;;;;;;;24.70;17.45;;;;;;;15.42;66.93;99440.50;5031532;28;20049;-76
2023/09/01 04:36:22;;;;;;;25.70;18.30;;;;;;;15.40;66.79;99443.28;5031563;28;20103;-76
2023/09/01 04:38:58;;;;;;;23.63;17.10;;;;;;;15.39;67.04;99454.88;5015638;28;20045;-76
2023/09/01 04:41:25;;;;;;;23.08;18.05;;;;;;;15.37;67.18;99446.22;5031092;28;20057;-76
2023/09/01 04:43:52;;;;;;;23.13;16.23;;;;;;;15.36;67.21;99447.16;5005960;28;20150;-77
2023/09/01 04:46:19;;;;;;;19.52;16.35;;;;;;;15.35;67.09;99446.34;5031305;28;20052;-76
2023/09/01 04:48:45;;;;;;;23.33;17.13;;;;;;;15.35;67.32;99456.09;5031345;28;20049;-76
2023/09/01 04:51:12;;;;;;;22.95;17.33;;;;;;;15.34;67.38;99457.06;5013863;28;20057;-76
2023/09/01 04:53:38;;;;;;;25.48;16.60;;;;;;;15.34;67.64;99455.25;5012971;28;20045;-76
2023/09/01 04:56:05;;;;;;;21.50;16.33;;;;;;;15.34;67.48;99462.38;5031524;28;20456;-77
2023/09/01 04:58:32;;;;;;;24.77;17.48;;;;;;;15.34;67.50;99462.38;5031134;28;20054;-76
2023/09/01 05:00:58;;;;;;;23.40;16.55;;;;;;;15.34;67.78;99471.19;5031235;28;20049;-76
2023/09/01 05:03:26;;;;;;;20.80;16.75;;;;;;;15.34;67.74;99465.88;5031385;28;20041;-76
2023/09/01 05:05:52;;;;;;;20.38;17.17;;;;;;;15.34;67.88;99463.22;5012971;28;20057;-75
2023/09/01 05:08:19;;;;;;;20.10;16.70;;;;;;;15.36;68.00;99477.19;5030760;28;20081;-76
2023/09/01 05:10:46;;;;;;;25.35;17.90;;;;;;;15.38;68.08;99474.41;5030791;28;20483;-78
2023/09/01 05:13:12;;;;;;;20.17;16.77;;;;;;;15.41;68.26;99471.50;5013293;28;20062;-76
2023/09/01 05:15:39;;;;;;;22.17;15.50;;;;;;;15.44;68.09;99487.16;5013670;28;20046;-77
2023/09/01 05:18:05;;;;;;;29.15;17.10;;;;;;;15.47;68.28;99481.59;5031091;28;20049;-77
2023/09/01 05:20:32;;;;;;;20.90;16.23;;;;;;;15.50;68.14;99481.38;5030747;28;20053;-79
2023/09/01 05:22:59;;;;;;;26.50;17.42;;;;;;;15.55;68.10;99475.66;5030813;28;20054;-77
2023/09/01 05:25:25;;;;;;;23.33;17.77;;;;;;;15.57;68.34;99476.38;5030903;28;20053;-77
2023/09/01 05:27:52;;;;;;;26.15;16.98;;;;;;;15.61;68.13;99477.81;5013046;28;20528;-77
2023/09/01 05:30:19;;;;;;;17.90;14.80;;;;;;;15.64;68.06;99474.06;5030749;28;20057;-76
2023/09/01 05:32:45;;;;;;;19.25;16.52;;;;;;;15.67;68.13;99473.81;5030334;28;20045;-77
2023/09/01 05:35:12;;;;;;;22.52;16.50;;;;;;;15.70;67.92;99467.41;5012388;28;20115;-78
2023/09/01 05:37:38;;;;;;;19.92;15.75;;;;;;;15.74;67.97;99466.19;5012722;28;20049;-76
2023/09/01 05:40:07;;;;;;;19.83;16.35;;;;;;;15.76;68.16;99475.72;5029844;28;20509;-80
2023/09/01 05:42:33;;;;;;;23.17;17.35;;;;;;;15.81;68.12;99477.97;5011705;28;20050;-78
2023/09/01 05:45:00;;;;;;;21.95;16.15;;;;;;;15.84;68.29;99490.97;5030237;28;20116;-76
2023/09/01 05:47:26;;;;;;;24.67;16.77;;;;;;;15.88;68.36;99487.09;5030522;28;20552;-76
2023/09/01 05:49:53;;;;;;;22.95;16.35;;;;;;;15.94;68.38;99488.44;5030416;28;20078;-76
2023/09/01 05:52:20;;;;;;;25.27;16.65;;;;;;;15.98;68.41;99495.16;5012877;28;20067;-76
2023/09/01 05:54:46;;;;;;;17.90;15.60;;;;;;;16.05;68.33;99497.28;5030528;28;20098;-77
2023/09/01 05:57:13;;;;;;;22.42;15.10;;;;;;;16.11;68.28;99488.81;5030733;28;20061;-77
2023/09/01 05:59:39;;;;;;;18.67;14.18;;;;;;;16.17;68.05;99492.75;5030698;28;20045;-75
2023/09/01 06:02:06;;;;;;;21.92;14.23;;;;;;;16.23;68.08;99487.75;5030524;28;20050;-76
2023/09/01 06:04:32;;;;;;;19.20;13.50;;;;;;;16.28;68.06;99485.56;5014597;28;20053;-78
2023/09/01 06:06:59;;;;;;;19.75;14.10;;;;;;;16.35;68.06;99495.66;5034718;28;20049;-78
2023/09/01 06:09:26;;;;;;;18.63;13.65;;;;;;;16.41;67.88;99500.47;5016790;28;20481;-77
2023/09/01 06:11:55;;;;;;;21.52;13.57;;;;;;;16.46;67.66;99503.56;5016990;28;20390;-78
2023/09/01 06:14:22;;;;;;;19.00;13.48;;;;;;;16.50;67.64;99504.97;5034444;28;20486;-76
2023/09/01 06:16:50;;;;;;;16.60;12.43;;;;;;;16.55;67.42;99512.53;5034324;28;20049;-77
2023/09/01 06:19:18;;;;;;;15.63;12.52;;;;;;;16.60;67.65;99514.81;5034363;28;20057;-76
2023/09/01 06:21:44;;;;;;;23.35;13.18;;;;;;;16.64;67.83;99511.72;5033949;28;20057;-78
2023/09/01 06:24:11;;;;;;;16.75;11.90;;;;;;;16.69;67.47;99521.97;5034175;28;20053;-77
2023/09/01 06:26:38;;;;;;;14.93;11.98;;;;;;;16.72;67.23;99513.75;5016732;28;20057;-76
2023/09/01 06:29:05;;;;;;;14.85;11.68;;;;;;;16.78;67.24;99512.34;5033244;28;20088;-78
2023/09/01 06:31:31;;;;;;;16.05;11.65;;;;;;;16.83;67.23;99517.28;5033703;28;20136;-77
2023/09/01 06:33:58;;;;;;;16.70;11.75;;;;;;;16.87;67.42;99514.22;5033983;28;20108;-77
2023/09/01 06:36:24;;;;;;;17.02;11.23;;;;;;;16.93;67.31;99516.34;5016038;28;20139;-80
2023/09/01 06:38:51;;;;;;;19.83;12.80;;;;;;;16.99;67.40;99511.44;5033872;28;20057;-78
2023/09/01 06:41:18;;;;;;;16.80;10.85;;;;;;;17.05;67.48;99519.75;5033680;28;20077;-77
2023/09/01 06:43:44;;;;;;;18.75;11.52;;;;;;;17.12;67.44;99521.88;5033768;28;20551;-76
2023/09/01 06:46:11;;;;;;;17.73;10.90;;;;;;;17.19;67.43;99515.88;5033531;28;20053;-77
2023/09/01 06:48:37;;;;;;;16.92;11.13;;;;;;;17.26;67.33;99524.16;5033005;28;20050;-78
2023/09/01 06:51:04;;;;;;;14.18;9.80;;;;;;;17.35;67.24;99524.31;5032653;28;20046;-76
2023/09/01 06:53:31;;;;;;;14.35;9.82;;;;;;;17.43;66.81;99527.13;5033105;28;20678;-78
2023/09/01 06:55:57;;;;;;;15.23;9.88;;;;;;;17.50;66.78;99528.25;5032956;28;20072;-77
2023/09/01 06:58:24;;;;;;;13.13;8.95;;;;;;;17.57;66.61;99524.06;5014995;28;20418;-78
2023/09/01 07:00:51;;;;;;;15.35;9.10;;;;;;;17.62;66.47;99523.66;5032709;28;20056;-77
2023/09/01 07:03:21;;;;;;;13.32;8.65;;;;;;;17.67;65.89;99529.38;5033144;28;20144;-79
2023/09/01 07:05:55;;;;;;;15.05;9.25;;;;;;;17.73;66.38;99529.81;5033476;28;20064;-79
2023/09/01 07:08:22;;;;;;;13.68;8.48;;;;;;;17.82;66.37;99529.81;5015806;28;20111;-82
2023/09/01 07:10:49;;;;;;;15.00;8.48;;;;;;;17.90;66.43;99528.28;5033201;28;20796;-77
2023/09/01 07:13:15;;;;;;;14.57;8.45;;;;;;;17.95;66.51;99520.69;5033264;28;20474;-78
2023/09/01 07:15:49;;;;;;;13.07;8.07;;;;;;;17.99;65.94;99516.78;5032507;28;20410;-77
2023/09/01 07:18:16;;;;;;;14.23;7.57;;;;;;;18.06;65.99;99509.06;5033331;28;20470;-78
2023/09/01 07:20:46;;;;;;;11.68;6.55;;;;;;;18.12;66.18;99516.50;5033136;28;20046;-78
2023/09/01 07:23:13;;;;;;;11.80;7.45;;;;;;;18.17;65.99;99510.75;5033133;28;20497;-77
2023/09/01 07:25:40;;;;;;;13.07;6.63;;;;;;;18.22;65.49;99511.16;5033203;28;20053;-79
2023/09/01 07:28:06;;;;;;;13.52;7.50;;;;;;;18.27;65.46;99518.72;5015276;28;20045;-77
2023/09/01 07:30:33;;;;;;;14.98;7.15;;;;;;;18.30;65.21;99513.09;5032759;28;20486;-78
2023/09/01 07:33:00;;;;;;;15.73;6.97;;;;;;;18.34;65.52;99506.50;5015273;28;20544;-78
2023/09/01 07:35:27;;;;;;;10.73;6.03;;;;;;;18.38;65.44;99505.22;5033285;28;20050;-76
2023/09/01 07:37:55;;;;;;;12.50;6.95;;;;;;;18.45;65.47;99505.47;5033026;28;20514;-78
2023/09/01 07:40:22;;;;;;;13.23;7.20;;;;;;;18.51;64.97;99506.72;5032869;28;20100;-76
2023/09/01 07:42:49;;;;;;;14.65;6.88;;;;;;;18.57;64.93;99506.13;5015201;28;20053;-79
2023/09/01 07:45:16;;;;;;;16.15;7.38;;;;;;;18.64;65.16;99503.75;5032710;28;20406;-78
2023/09/01 07:47:43;;;;;;;10.50;6.57;;;;;;;18.71;64.85;99505.69;5032508;28;20103;-77
2023/09/01 07:50:09;;;;;;;13.80;7.65;;;;;;;18.79;65.20;99504.94;5032293;28;20053;-78
2023/09/01 07:52:36;;;;;;;13.27;6.60;;;;;;;18.88;64.92;99506.72;5032663;28;20404;-77
2023/09/01 07:55:05;;;;;;;12.93;6.68;;;;;;;18.98;65.06;99505.81;5032617;28;20041;-77
2023/09/01 07:57:32;;;;;;;10.82;6.65;;;;;;;19.07;64.83;99509.47;5032816;28;20414;-78
2023/09/01 07:59:59;;;;;;;12.15;6.75;;;;;;;19.16;64.72;99511.22;5014630;28;20395;-77
2023/09/01 08:02:25;;;;;;;11.45;6.70;;;;;;;19.23;64.48;99514.13;5014820;28;20144;-81
2023/09/01 08:04:52;;;;;;;9.75;5.45;;;;;;;19.30;64.31;99514.38;5032323;28;20049;-79
2023/09/01 08:07:19;;;;;;;16.02;6.85;;;;;;;19.36;64.55;99519.13;5014479;28;20049;-77
2023/09/01 08:09:45;;;;;;;13.75;5.68;;;;;;;19.45;64.22;99512.03;5032170;28;20421;-76
2023/09/01 08:12:12;;;;;;;10.73;5.45;;;;;;;19.51;63.71;99506.91;5014461;28;20115;-78
2023/09/01 08:14:38;;;;;;;10.18;5.25;;;;;;;19.59;63.35;99514.16;5031942;28;20053;-79
2023/09/01 08:17:05;;;;;;;11.55;5.15;;;;;;;19.66;63.67;99509.03;5014446;28;20045;-77
2023/09/01 08:19:31;;;;;;;10.63;4.97;;;;;;;19.71;63.60;99506.78;5032190;28;20107;-78
2023/09/01 08:21:58;;;;;;;9.02;4.97;;;;;;;19.78;63.94;99509.69;5031852;28;20475;-76
2023/09/01 08:24:25;;;;;;;7.00;4.50;;;;;;;19.85;63.05;99512.56;5031744;28;20498;-76
2023/09/01 08:26:51;;;;;;;10.20;4.47;;;;;;;19.91;63.03;99507.44;5031652;28;20053;-77
2023/09/01 08:29:18;;;;;;;11.48;4.55;;;;;;;19.97;62.90;99508.66;5031584;28;20085;-78
2023/09/01 08:31:45;;;;;;;11.20;5.20;;;;;;;20.03;62.46;99504.53;5031777;28;20080;-76
2023/09/01 08:34:11;;;;;;;11.35;5.18;;;;;;;20.08;62.09;99502.25;5031636;28;20092;-78
2023/09/01 08:36:38;;;;;;;12.43;5.28;;;;;;;20.12;61.89;99503.63;5031872;28;20410;-78
2023/09/01 08:39:07;;;;;;;11.07;5.55;;;;;;;20.16;62.38;99496.97;5031541;28;20049;-77
2023/09/01 08:41:34;;;;;;;12.00;4.88;;;;;;;20.22;62.11;99502.69;5031457;28;20057;-77
2023/09/01 08:44:05;;;;;;;9.60;4.72;;;;;;;20.26;61.09;99512.06;5031671;28;20120;-76
2023/09/01 08:46:33;;;;;;;11.23;4.13;;;;;;;20.35;61.84;99507.59;5031644;28;20049;-78
2023/09/01 08:49:00;;;;;;;10.00;4.75;;;;;;;20.43;62.23;99515.69;5031359;28;20046;-76
2023/09/01 08:51:27;;;;;;;9.10;4.72;;;;;;;20.51;62.16;99517.56;5013699;28;20046;-79
2023/09/01 08:53:53;;;;;;;7.25;4.07;;;;;;;20.59;61.24;99514.91;5031409;28;20141;-76
2023/09/01 08:56:20;;;;;;;10.50;3.55;;;;;;;20.66;61.21;99513.31;5031516;28;20082;-77
2023/09/01 08:58:50;;;;;;;7.88;3.38;;;;;;;20.73;60.89;99520.66;5031432;28;20072;-77
2023/09/01 09:01:16;;;;;;;9.30;4.00;;;;;;;20.79;60.51;99515.53;5031137;28;20053;-78
2023/09/01 09:03:43;;;;;;;11.25;3.50;;;;;;;20.85;60.53;99521.25;5031170;28;20483;-78
2023/09/01 09:06:13;;;;;;;7.60;3.30;;;;;;;20.87;59.02;99528.16;5031188;28;20409;-78
2023/09/01 09:08:41;;;;;;;8.38;3.08;;;;;;;20.90;59.69;99533.16;5030928;28;20084;-78
2023/09/01 09:11:14;;;;;;;8.55;3.50;;;;;;;20.90;58.80;99533.16;5031025;28;20049;-77
2023/09/01 09:13:41;;;;;;;6.25;3.10;;;;;;;20.91;59.52;99529.50;5031169;28;20073;-76
2023/09/01 09:16:11;;;;;;;7.10;2.97;;;;;;;20.90;59.10;99516.28;5030890;28;20064;-78
2023/09/01 09:18:41;;;;;;;6.40;3.45;;;;;;;20.87;58.57;99524.59;5030816;28;20489;-79
2023/09/01 09:21:27;;;;;;;6.13;3.08;;;;;;;20.79;58.14;99525.41;5030791;28;20132;-76
2023/09/01 09:23:59;;;;;;;9.82;3.10;;;;;;;20.81;58.71;99526.06;5013556;28;20065;-76
2023/09/01 09:26:46;;;;;;;11.00;2.83;;;;;;;20.80;58.54;99516.38;5030709;28;20418;-77
2023/09/01 09:29:14;;;;;;;8.35;3.05;;;;;;;20.78;58.86;99515.69;5030702;28;20084;-79
2023/09/01 09:31:41;;;;;;;5.40;2.83;;;;;;;20.77;59.17;99514.84;5030531;28;20547;-78
2023/09/01 09:34:27;;;;;;;7.20;3.05;;;;;;;20.70;58.82;99519.16;5013415;28;20107;-76
2023/09/01 09:36:53;;;;;;;9.98;3.17;;;;;;;20.78;59.93;99526.41;5030715;28;20053;-77
2023/09/01 09:39:24;;;;;;;9.77;3.03;;;;;;;20.78;60.25;99535.25;5012641;28;20049;-77
2023/09/01 09:41:51;;;;;;;11.52;3.03;;;;;;;20.82;60.16;99531.25;5030608;28;20410;-78
2023/09/01 09:44:25;;;;;;;9.45;3.28;;;;;;;20.82;59.80;99535.78;5030765;28;20049;-80
2023/09/01 09:46:53;;;;;;;7.30;3.13;;;;;;;20.90;59.87;99538.50;5030539;28;20503;-77
2023/09/01 09:49:22;;;;;;;5.82;2.85;;;;;;;20.94;59.72;99539.84;5030490;28;20547;-79
2023/09/01 09:51:51;;;;;;;7.85;3.10;;;;;;;21.00;59.72;99533.03;5030449;28;20053;-77
2023/09/01 09:54:22;;;;;;;5.78;3.00;;;;;;;21.05;59.56;99535.25;5030654;28;20478;-78
2023/09/01 09:56:50;;;;;;;5.95;3.10;;;;;;;21.14;60.14;99536.09;5012880;28;20053;-77
2023/09/01 09:59:35;;;;;;;5.07;3.03;;;;;;;21.17;59.55;99543.81;5013017;28;20053;-80
2023/09/01 10:02:21;;;;;;;5.15;2.60;;;;;;;21.26;59.75;99547.34;5013064;28;20132;-77
2023/09/01 10:04:49;;;;;;;4.32;2.40;;;;;;;21.32;59.68;99552.03;5012973;28;20055;-77
2023/09/01 10:07:17;;;;;;;7.05;2.70;;;;;;;21.32;58.70;99555.56;5030635;28;20111;-77
2023/09/01 10:09:44;;;;;;;5.22;2.40;;;;;;;21.32;58.30;99557.41;5012810;28;20093;-77
2023/09/01 10:12:12;;;;;;;4.43;2.40;;;;;;;21.29;58.33;99560.41;5030357;28;20045;-77
2023/09/01 10:14:39;;;;;;;3.75;2.25;;;;;;;21.26;58.21;99558.06;5030683;28;20049;-77
2023/09/01 10:17:07;;;;;;;4.32;2.63;;;;;;;21.22;58.37;99562.88;5030350;28;20104;-76
2023/09/01 10:19:34;;;;;;;4.43;2.40;;;;;;;21.20;58.19;99556.88;5030274;28;20509;-79
2023/09/01 10:22:01;;;;;;;5.13;2.33;;;;;;;21.17;58.39;99555.34;5030571;28;20045;-79
2023/09/01 10:24:27;;;;;;;4.35;2.15;;;;;;;21.13;58.54;99555.84;5030373;28;20048;-78
2023/09/01 10:27:09;;;;;;;4.55;2.28;;;;;;;21.06;58.69;99553.81;5012860;28;20061;-77
2023/09/01 10:29:37;;;;;;;4.90;2.05;;;;;;;21.10;58.90;99559.66;5030142;28;20048;-76
2023/09/01 10:32:17;;;;;;;3.08;2.00;;;;;;;21.05;58.47;99565.50;5030095;28;20053;-79
2023/09/01 10:34:51;;;;;;;4.43;2.42;;;;;;;21.05;58.18;99553.97;5030454;28;20453;-77
2023/09/01 10:37:29;;;;;;;3.47;2.10;;;;;;;21.04;58.49;99552.28;5030273;28;20060;-79
2023/09/01 10:39:57;;;;;;;4.97;2.20;;;;;;;21.04;58.88;99561.16;5030329;28;20081;-79
2023/09/01 10:42:39;;;;;;;3.20;2.10;;;;;;;20.99;58.70;99562.63;5029935;28;20080;-79
2023/09/01 10:45:06;;;;;;;3.38;2.13;;;;;;;21.03;58.93;99556.81;5012787;28;20387;-77
2023/09/01 10:47:32;;;;;;;2.80;1.80;;;;;;;21.02;59.17;99551.59;5030317;28;20050;-77
2023/09/01 10:50:02;;;;;;;5.90;1.77;;;;;;;20.99;58.94;99557.28;5030125;28;20390;-77
2023/09/01 10:52:31;;;;;;;4.18;2.00;;;;;;;20.97;59.15;99552.06;5033092;28;20080;-78
2023/09/01 10:55:02;;;;;;;3.85;2.25;;;;;;;20.92;59.49;99552.56;5033475;28;20052;-78
2023/09/01 10:57:48;;;;;;;2.88;1.92;;;;;;;20.88;59.45;99543.19;5033507;28;20140;-77
2023/09/01 11:00:32;;;;;;;2.78;2.05;;;;;;;20.85;59.38;99540.78;5033397;28;20089;-78
2023/09/01 11:03:30;;;;;;;3.40;2.03;;;;;;;20.83;59.58;99548.16;5033497;28;20045;-76
2023/09/01 11:05:58;;;;;;;2.72;1.92;;;;;;;20.86;59.75;99542.47;5015706;28;20489;-77
2023/09/01 11:08:25;;;;;;;5.47;2.08;;;;;;;20.85;59.69;99543.47;5033318;28;20085;-78
2023/09/01 11:10:55;;;;;;;5.97;2.03;;;;;;;20.83;59.53;99542.81;5033339;28;20052;-76
2023/09/01 11:13:26;;;;;;;4.95;1.88;;;;;;;20.80;59.78;99543.13;5033336;28;20144;-79
2023/09/01 11:15:52;;;;;;;5.28;1.60;;;;;;;20.78;59.37;99537.91;5015554;28;20449;-77
2023/09/01 11:18:21;;;;;;;4.97;2.10;;;;;;;20.77;59.68;99543.44;5033275;28;20144;-77
2023/09/01 11:20:48;;;;;;;3.55;2.03;;;;;;;;;;5032861;28;20099;-79
2023/09/01 11:23:20;;;;;;;3.10;2.33;;;;;;;20.70;59.65;99530.72;5033182;28;20139;-76
2023/09/01 11:25:48;;;;;;;5.00;1.93;;;;;;;20.72;59.97;99532.38;5033079;28;20597;-78
2023/09/01 11:28:15;;;;;;;4.43;2.20;;;;;;;20.72;59.53;99540.41;5033067;28;20054;-77
2023/09/01 11:30:59;;;;;;;2.97;1.95;;;;;;;20.67;59.70;99546.25;5033094;28;20050;-77
2023/09/01 11:33:26;;;;;;;4.45;2.30;;;;;;;20.70;59.89;99540.56;5015334;28;20051;-79
2023/09/01 11:36:05;;;;;;;5.88;1.98;;;;;;;20.66;59.82;99542.72;5033024;28;20054;-79
2023/09/01 11:38:34;;;;;;;3.30;2.20;;;;;;;20.69;60.31;99544.22;5032831;28;20053;-78
2023/09/01 11:41:03;;;;;;;3.55;2.20;;;;;;;20.68;59.92;99550.59;5014891;28;20045;-78
2023/09/01 11:43:31;;;;;;;4.40;2.00;;;;;;;20.69;60.26;99550.44;5032913;28;20049;-77
2023/09/01 11:45:58;;;;;;;3.35;1.90;;;;;;;20.70;60.44;99549.44;5015398;28;20152;-77
2023/09/01 11:48:28;;;;;;;2.53;2.00;;;;;;;20.73;60.69;99552.75;5032669;28;20046;-77
2023/09/01 11:50:59;;;;;;;3.17;2.20;;;;;;;20.77;60.67;99546.09;5032490;28;20089;-77
2023/09/01 11:53:28;;;;;;;7.80;2.47;;;;;;;20.80;61.05;99548.47;5032663;28;20045;-77
2023/09/01 11:55:58;;;;;;;4.60;2.30;;;;;;;20.85;60.91;99551.50;5032816;28;20045;-77
2023/09/01 11:58:50;;;;;;;4.70;2.10;;;;;;;20.86;60.44;99557.69;5032517;28;20057;-77
2023/09/01 12:01:19;;;;;;;3.60;2.10;;;;;;;20.93;60.33;99562.28;5014449;28;20049;-78